Time;durP1;ratioP1;P1;durP2;ratioP2;P2;SDS_P1;SDS_P2;PMS_P1;PMS_P2;Temp;Humidity;BMP_temperature;BMP_pressure;BME280_temperature;BME280_humidity;BME280_pressure;Samples;Min_cycle;Max_cycle;Signal;HPM_P1;HPM_P2
2023/07/29 00:01:08;;;;;;;1.27;0.20;;;17.40;99.90;;;;;;5054585;28;20041;-75
2023/07/29 00:03:33;;;;;;;0.13;0.00;;;17.40;99.90;;;;;;5054661;28;20062;-75
2023/07/29 00:05:59;;;;;;;0.30;0.00;;;17.40;99.90;;;;;;5054431;28;20028;-75
2023/07/29 00:08:24;;;;;;;1.25;0.00;;;17.40;99.90;;;;;;5054585;28;20025;-75
2023/07/29 00:10:50;;;;;;;0.00;0.00;;;17.40;99.90;;;;;;5054778;28;20017;-75
2023/07/29 00:13:15;;;;;;;1.90;0.20;;;17.40;99.90;;;;;;5054556;28;20020;-75
2023/07/29 00:15:41;;;;;;;0.10;0.00;;;17.50;99.90;;;;;;5054055;28;20024;-75
2023/07/29 00:18:07;;;;;;;1.98;0.00;;;17.40;99.90;;;;;;5052716;28;20052;-75
2023/07/29 00:20:32;;;;;;;0.10;0.00;;;17.50;99.90;;;;;;5053047;28;20476;-75
2023/07/29 00:22:58;;;;;;;0.22;0.00;;;17.50;99.90;;;;;;5054082;28;20021;-75
2023/07/29 00:25:24;;;;;;;0.20;0.00;;;17.50;99.90;;;;;;5054043;28;20021;-75
2023/07/29 00:27:49;;;;;;;0.75;0.00;;;17.50;99.90;;;;;;5054131;28;20365;-76
2023/07/29 00:30:15;;;;;;;1.00;0.00;;;17.50;99.90;;;;;;5054572;28;20104;-75
2023/07/29 00:32:41;;;;;;;1.60;0.10;;;17.40;99.90;;;;;;5052754;28;20151;-76
2023/07/29 00:35:07;;;;;;;0.10;0.00;;;17.40;99.90;;;;;;5054037;28;20033;-75
2023/07/29 00:37:32;;;;;;;1.30;0.00;;;17.30;99.90;;;;;;5054529;28;20025;-76
2023/07/29 00:39:58;;;;;;;0.10;0.00;;;17.30;99.90;;;;;;5052550;28;20032;-75
2023/07/29 00:42:24;;;;;;;0.93;0.00;;;17.30;99.90;;;;;;5053900;28;20036;-75
2023/07/29 00:44:50;;;;;;;1.08;0.00;;;17.30;99.90;;;;;;5053803;28;20104;-75
2023/07/29 00:47:16;;;;;;;4.32;0.00;;;17.40;99.90;;;;;;5054173;28;20064;-75
2023/07/29 00:49:44;;;;;;;17.63;0.30;;;17.40;99.90;;;;;;5052342;28;20029;-75
2023/07/29 00:52:12;;;;;;;0.30;0.00;;;17.50;99.90;;;;;;5053574;28;20052;-75
2023/07/29 00:54:38;;;;;;;2.03;0.00;;;17.50;99.90;;;;;;5052093;28;20094;-75
2023/07/29 00:57:05;;;;;;;2.05;0.00;;;17.60;99.90;;;;;;5053523;28;20103;-75
2023/07/29 00:59:31;;;;;;;0.55;0.10;;;17.60;99.90;;;;;;5054080;28;20388;-75
2023/07/29 01:01:58;;;;;;;0.75;0.20;;;17.60;99.90;;;;;;5052127;28;20017;-75
2023/07/29 01:04:23;;;;;;;0.55;0.08;;;17.70;99.90;;;;;;5053383;28;20051;-75
2023/07/29 01:07:21;;;;;;;0.90;0.00;;;17.70;99.90;;;;;;5052818;28;20021;-75
2023/07/29 01:09:46;;;;;;;2.67;0.08;;;17.80;99.90;;;;;;5054040;28;20044;-75
2023/07/29 01:12:20;;;;;;;2.28;0.20;;;17.70;99.90;;;;;;5053356;28;20036;-75
2023/07/29 01:14:55;;;;;;;1.45;0.03;;;17.80;99.90;;;;;;5053247;28;20528;-75
2023/07/29 01:17:32;;;;;;;1.13;0.20;;;17.70;99.90;;;;;;5052307;28;20408;-75
2023/07/29 01:20:07;;;;;;;3.65;0.25;;;17.70;99.90;;;;;;5053241;28;20025;-75
2023/07/29 01:22:37;;;;;;;1.67;0.10;;;17.70;99.90;;;;;;5053143;28;20032;-75
2023/07/29 01:25:03;;;;;;;3.83;0.45;;;17.70;99.90;;;;;;5053086;28;20025;-75
2023/07/29 01:27:29;;;;;;;1.40;0.10;;;17.60;99.90;;;;;;5053257;28;20025;-76
2023/07/29 01:29:55;;;;;;;1.67;0.20;;;17.60;99.90;;;;;;5053226;28;20507;-75
2023/07/29 01:32:42;;;;;;;3.80;0.40;;;17.60;99.90;;;;;;5051999;28;20021;-75
2023/07/29 01:35:39;;;;;;;3.60;0.30;;;17.60;99.90;;;;;;5053073;28;20029;-75
2023/07/29 01:38:28;;;;;;;1.65;0.47;;;17.60;99.90;;;;;;5053739;28;20031;-75
2023/07/29 01:40:54;;;;;;;1.52;0.55;;;17.50;99.90;;;;;;5053180;28;20064;-75
2023/07/29 01:43:23;;;;;;;2.05;0.43;;;17.50;99.90;;;;;;5051519;28;20052;-75
2023/07/29 01:45:49;;;;;;;3.33;0.52;;;17.50;99.90;;;;;;5053047;28;20025;-75
2023/07/29 01:48:14;;;;;;;1.85;0.20;;;17.50;99.90;;;;;;5052938;28;20021;-75
2023/07/29 01:50:40;;;;;;;3.17;0.60;;;17.50;99.90;;;;;;5053128;28;20361;-75
2023/07/29 01:53:05;;;;;;;5.47;0.65;;;17.50;99.90;;;;;;5051788;28;20090;-75
2023/07/29 01:55:31;;;;;;;4.20;0.35;;;17.50;99.90;;;;;;5053287;28;20480;-74
2023/07/29 01:57:58;;;;;;;2.17;0.50;;;17.50;99.90;;;;;;5051726;28;20492;-75
2023/07/29 02:00:23;;;;;;;4.43;0.65;;;17.40;99.90;;;;;;5053096;28;20032;-75
2023/07/29 02:02:49;;;;;;;3.38;0.60;;;17.40;99.90;;;;;;5051357;28;20403;-75
2023/07/29 02:05:14;;;;;;;3.50;1.00;;;17.40;99.90;;;;;;5052498;28;20029;-75
2023/07/29 02:07:40;;;;;;;5.40;0.70;;;17.40;99.90;;;;;;5053039;28;20039;-75
2023/07/29 02:10:06;;;;;;;6.07;0.70;;;17.40;99.90;;;;;;5051652;28;20106;-75
2023/07/29 02:12:31;;;;;;;4.50;1.05;;;17.40;99.90;;;;;;5051550;28;20025;-75
2023/07/29 02:14:57;;;;;;;4.25;0.63;;;17.40;99.90;;;;;;5052958;28;20106;-76
2023/07/29 02:17:23;;;;;;;3.55;0.55;;;17.30;99.90;;;;;;5051493;28;20439;-75
2023/07/29 02:19:48;;;;;;;2.00;0.63;;;17.30;99.90;;;;;;5054834;28;20078;-75
2023/07/29 02:22:17;;;;;;;2.55;0.77;;;17.30;99.90;;;;;;5056709;28;20025;-74
2023/07/29 02:24:43;;;;;;;2.50;0.68;;;17.30;99.90;;;;;;5055019;28;20032;-74
2023/07/29 02:27:08;;;;;;;3.33;0.57;;;17.40;99.90;;;;;;5056420;28;20028;-76
2023/07/29 02:29:34;;;;;;;1.13;0.35;;;17.40;99.90;;;;;;5056322;28;20031;-75
2023/07/29 02:32:00;;;;;;;5.30;1.17;;;17.30;99.90;;;;;;5055089;28;20024;-74
2023/07/29 02:34:26;;;;;;;1.60;0.40;;;17.30;99.90;;;;;;5054950;28;20021;-75
2023/07/29 02:36:51;;;;;;;3.30;0.40;;;17.30;99.90;;;;;;5056583;28;20087;-76
2023/07/29 02:39:17;;;;;;;4.97;1.00;;;17.20;99.90;;;;;;5055943;28;20384;-76
2023/07/29 02:41:42;;;;;;;6.97;0.50;;;17.10;99.90;;;;;;5054771;28;20017;-75
2023/07/29 02:44:08;;;;;;;1.10;0.50;;;17.10;99.90;;;;;;5054614;28;20021;-76
2023/07/29 02:46:33;;;;;;;3.53;0.22;;;17.10;99.90;;;;;;5054936;28;20013;-75
2023/07/29 02:48:59;;;;;;;2.72;0.50;;;17.10;99.90;;;;;;5055921;28;20103;-74
2023/07/29 02:51:25;;;;;;;0.80;0.20;;;17.00;99.90;;;;;;5055718;28;20017;-75
2023/07/29 02:53:50;;;;;;;3.05;0.25;;;17.10;99.90;;;;;;5055690;28;20029;-75
2023/07/29 02:56:16;;;;;;;1.85;0.47;;;17.00;99.90;;;;;;5054359;28;20021;-76
2023/07/29 02:58:41;;;;;;;4.35;0.40;;;17.00;99.90;;;;;;5054533;28;20027;-75
2023/07/29 03:01:07;;;;;;;0.95;0.00;;;17.00;99.90;;;;;;5054675;28;20028;-74
2023/07/29 03:03:33;;;;;;;2.97;0.22;;;17.00;99.90;;;;;;5054327;28;20037;-76
2023/07/29 03:06:07;;;;;;;3.95;0.25;;;16.90;99.90;;;;;;5055479;28;20536;-76
2023/07/29 03:08:34;;;;;;;0.60;0.10;;;16.90;99.90;;;;;;5055477;28;20104;-75
2023/07/29 03:11:06;;;;;;;1.50;0.03;;;17.00;99.90;;;;;;5055604;28;20392;-76
2023/07/29 03:13:31;;;;;;;5.28;0.70;;;16.90;99.90;;;;;;5055923;28;20100;-75
2023/07/29 03:16:09;;;;;;;0.77;0.08;;;16.90;99.90;;;;;;5054092;28;20068;-75
2023/07/29 03:18:35;;;;;;;6.65;0.20;;;16.90;99.90;;;;;;5054849;28;20028;-75
2023/07/29 03:21:01;;;;;;;0.30;0.00;;;16.80;99.90;;;;;;5055121;28;20025;-75
2023/07/29 03:23:28;;;;;;;1.55;0.20;;;16.80;99.90;;;;;;5055110;28;20055;-75
2023/07/29 03:25:56;;;;;;;2.38;0.20;;;16.80;99.90;;;;;;5055273;28;20032;-75
2023/07/29 03:28:27;;;;;;;1.00;0.40;;;16.80;99.90;;;;;;5055713;28;20021;-75
2023/07/29 03:30:56;;;;;;;1.10;0.15;;;16.80;99.90;;;;;;5054582;28;20049;-75
2023/07/29 03:33:22;;;;;;;0.60;0.35;;;16.80;99.90;;;;;;5054786;28;20025;-74
2023/07/29 03:35:48;;;;;;;1.85;0.10;;;16.80;99.90;;;;;;5054986;28;20104;-75
2023/07/29 03:38:14;;;;;;;1.75;0.10;;;16.80;99.90;;;;;;5055146;28;20399;-75
2023/07/29 03:40:41;;;;;;;2.08;0.00;;;16.80;99.90;;;;;;5054986;28;20033;-75
2023/07/29 03:43:06;;;;;;;0.85;0.00;;;16.80;99.90;;;;;;5054851;28;20025;-75
2023/07/29 03:45:33;;;;;;;2.38;0.40;;;16.80;99.90;;;;;;5054644;28;20061;-75
2023/07/29 03:47:59;;;;;;;5.55;0.65;;;16.80;99.90;;;;;;5054864;28;20151;-75
2023/07/29 03:50:24;;;;;;;5.57;0.43;;;16.80;99.90;;;;;;5054749;28;20052;-75
2023/07/29 03:52:50;;;;;;;1.45;0.10;;;16.80;99.90;;;;;;5055342;28;20025;-75
2023/07/29 03:55:16;;;;;;;0.43;0.20;;;16.80;99.90;;;;;;5054626;28;20024;-75
2023/07/29 03:57:42;;;;;;;0.32;0.10;;;16.80;99.90;;;;;;5055115;28;20028;-75
2023/07/29 04:00:08;;;;;;;0.85;0.10;;;16.90;99.90;;;;;;5055044;28;20033;-76
2023/07/29 04:02:37;;;;;;;0.50;0.00;;;16.90;99.90;;;;;;5054401;28;20033;-75
2023/07/29 04:05:03;;;;;;;0.32;0.15;;;16.80;99.90;;;;;;5054363;28;20392;-75
2023/07/29 04:07:29;;;;;;;1.70;0.20;;;16.80;99.90;;;;;;5055088;28;20025;-76
2023/07/29 04:09:54;;;;;;;1.50;0.13;;;16.80;99.90;;;;;;5054335;28;20013;-76
2023/07/29 04:12:21;;;;;;;2.90;0.05;;;16.80;99.90;;;;;;5053094;28;20056;-75
2023/07/29 04:14:47;;;;;;;1.95;0.65;;;16.80;99.90;;;;;;5054290;28;20024;-75
2023/07/29 04:17:12;;;;;;;0.17;0.00;;;16.80;99.90;;;;;;5054369;28;20083;-75
2023/07/29 04:19:38;;;;;;;0.65;0.00;;;16.70;99.90;;;;;;5052778;28;20021;-75
2023/07/29 04:22:04;;;;;;;0.22;0.03;;;16.70;99.90;;;;;;5054815;28;20040;-75
2023/07/29 04:24:29;;;;;;;1.02;0.20;;;16.70;99.90;;;;;;5054034;28;20094;-75
2023/07/29 04:26:55;;;;;;;1.55;0.10;;;16.70;99.90;;;;;;5053831;28;20021;-75
2023/07/29 04:29:22;;;;;;;0.80;0.22;;;16.70;99.90;;;;;;5052710;28;20029;-75
2023/07/29 04:31:48;;;;;;;1.20;0.10;;;16.70;99.90;;;;;;5053995;28;20518;-75
2023/07/29 04:34:14;;;;;;;3.80;0.20;;;16.70;99.90;;;;;;5053685;28;20017;-75
2023/07/29 04:36:39;;;;;;;0.88;0.30;;;16.70;99.90;;;;;;5053754;28;20369;-75
2023/07/29 04:39:05;;;;;;;3.50;1.00;;;16.70;99.90;;;;;;5053867;28;20551;-76
2023/07/29 04:41:30;;;;;;;0.85;0.10;;;16.70;99.90;;;;;;5053018;28;20387;-75
2023/07/29 04:43:56;;;;;;;0.98;0.10;;;16.70;99.90;;;;;;5053978;28;20078;-76
2023/07/29 04:46:22;;;;;;;1.90;0.30;;;16.70;99.90;;;;;;5053618;28;20112;-76
2023/07/29 04:48:47;;;;;;;1.92;0.10;;;16.70;99.90;;;;;;5053637;28;20025;-76
2023/07/29 04:51:13;;;;;;;2.75;0.40;;;16.70;99.90;;;;;;5053733;28;20036;-76
2023/07/29 04:53:38;;;;;;;1.88;0.10;;;16.70;99.90;;;;;;5052392;28;20016;-75
2023/07/29 04:56:04;;;;;;;3.10;0.50;;;16.70;99.90;;;;;;5052225;28;20032;-76
2023/07/29 04:58:30;;;;;;;4.90;0.35;;;16.80;99.90;;;;;;5053999;28;20365;-76
2023/07/29 05:00:58;;;;;;;2.30;0.32;;;16.80;99.90;;;;;;5052182;28;20017;-76
2023/07/29 05:03:24;;;;;;;3.28;0.30;;;16.80;99.90;;;;;;5053442;28;20052;-76
2023/07/29 05:05:51;;;;;;;1.58;0.20;;;16.80;99.90;;;;;;5053467;28;20068;-76
2023/07/29 05:08:17;;;;;;;0.60;0.13;;;16.80;99.90;;;;;;5053257;28;20041;-75
2023/07/29 05:10:42;;;;;;;0.55;0.17;;;16.90;99.90;;;;;;5053181;28;20118;-75
2023/07/29 05:13:08;;;;;;;2.00;0.17;;;16.90;99.90;;;;;;5053304;28;20021;-76
2023/07/29 05:15:33;;;;;;;2.05;0.13;;;17.00;99.90;;;;;;5053015;28;20104;-76
2023/07/29 05:17:59;;;;;;;2.20;0.10;;;16.90;99.90;;;;;;5053264;28;20053;-75
2023/07/29 05:20:24;;;;;;;3.28;0.95;;;17.00;99.90;;;;;;5051967;28;20096;-74
2023/07/29 05:22:50;;;;;;;1.17;0.30;;;17.00;99.90;;;;;;5053208;28;20021;-75
2023/07/29 05:25:15;;;;;;;2.03;0.20;;;17.00;99.90;;;;;;5053104;28;20076;-76
2023/07/29 05:27:41;;;;;;;3.03;0.63;;;17.00;99.90;;;;;;5053116;28;20024;-75
2023/07/29 05:30:07;;;;;;;4.25;0.40;;;17.00;99.90;;;;;;5053073;28;20025;-75
2023/07/29 05:32:33;;;;;;;1.35;0.28;;;17.10;99.90;;;;;;5052973;28;20017;-74
2023/07/29 05:34:58;;;;;;;2.78;0.52;;;17.10;99.90;;;;;;5053042;28;20027;-75
2023/07/29 05:37:24;;;;;;;3.53;0.30;;;17.20;99.90;;;;;;5053110;28;20025;-76
2023/07/29 05:39:49;;;;;;;2.10;0.30;;;17.10;99.90;;;;;;5053134;28;20069;-76
2023/07/29 05:42:15;;;;;;;3.60;0.60;;;17.20;99.90;;;;;;5052958;28;20055;-76
2023/07/29 05:44:40;;;;;;;4.25;0.88;;;17.20;99.90;;;;;;5052755;28;20028;-76
2023/07/29 05:47:06;;;;;;;5.07;1.02;;;17.30;99.90;;;;;;5052816;28;20020;-75
2023/07/29 05:49:32;;;;;;;2.95;0.60;;;17.30;99.90;;;;;;5052945;28;20017;-75
2023/07/29 05:51:57;;;;;;;8.55;1.48;;;17.30;99.90;;;;;;5053483;28;20036;-75
2023/07/29 05:54:23;;;;;;;4.72;0.68;;;17.50;99.90;;;;;;5055617;28;20017;-75
2023/07/29 05:56:49;;;;;;;2.05;0.32;;;17.50;99.90;;;;;;5055856;28;20495;-74
2023/07/29 05:59:14;;;;;;;4.80;0.60;;;17.50;99.90;;;;;;5057347;28;20101;-76
2023/07/29 06:01:40;;;;;;;1.33;0.77;;;17.60;99.90;;;;;;5056798;28;20095;-76
2023/07/29 06:04:05;;;;;;;3.60;0.60;;;17.70;99.90;;;;;;5055347;28;20124;-76
2023/07/29 06:06:31;;;;;;;4.65;0.68;;;17.80;99.90;;;;;;5055483;28;20017;-75
2023/07/29 06:08:56;;;;;;;4.93;0.95;;;17.90;99.90;;;;;;5056718;28;20037;-75
2023/07/29 06:11:22;;;;;;;3.53;1.02;;;18.00;99.90;;;;;;5057306;28;20018;-75
2023/07/29 06:13:47;;;;;;;2.83;1.02;;;18.20;99.90;;;;;;5055592;28;20013;-75
2023/07/29 06:16:13;;;;;;;3.42;0.70;;;18.20;99.90;;;;;;5056601;28;20021;-76
2023/07/29 06:18:39;;;;;;;4.50;0.93;;;18.30;99.90;;;;;;5055143;28;20392;-76
2023/07/29 06:21:07;;;;;;;4.03;1.10;;;18.40;99.90;;;;;;5056618;28;20040;-76
2023/07/29 06:23:33;;;;;;;4.18;0.90;;;18.40;99.90;;;;;;5055985;28;20464;-75
2023/07/29 06:26:00;;;;;;;4.65;0.93;;;18.50;99.90;;;;;;5056236;28;20029;-76
2023/07/29 06:28:26;;;;;;;3.60;0.95;;;18.50;99.90;;;;;;5056581;28;20032;-75
2023/07/29 06:30:52;;;;;;;5.63;1.08;;;18.50;99.90;;;;;;5056338;28;20013;-75
2023/07/29 06:33:17;;;;;;;2.55;1.00;;;18.50;99.90;;;;;;5056192;28;20039;-75
2023/07/29 06:35:43;;;;;;;1.98;0.85;;;18.60;99.90;;;;;;5056878;28;20035;-75
2023/07/29 06:38:09;;;;;;;1.42;0.65;;;18.70;99.90;;;;;;5056050;28;20484;-75
2023/07/29 06:40:34;;;;;;;4.97;1.02;;;18.80;99.90;;;;;;5056202;28;20024;-75
2023/07/29 06:43:00;;;;;;;4.35;1.10;;;18.90;99.90;;;;;;5054677;28;20029;-75
2023/07/29 06:45:26;;;;;;;2.97;1.08;;;18.90;99.90;;;;;;5056102;28;20098;-75
2023/07/29 06:47:51;;;;;;;4.13;0.60;;;18.80;99.90;;;;;;5056141;28;20096;-75
2023/07/29 06:50:17;;;;;;;3.50;0.73;;;19.00;99.90;;;;;;5054895;28;20104;-75
2023/07/29 06:52:42;;;;;;;2.88;1.00;;;19.00;99.90;;;;;;5054580;28;20021;-75
2023/07/29 06:55:08;;;;;;;2.85;0.80;;;19.00;99.90;;;;;;5055954;28;20100;-75
2023/07/29 06:57:34;;;;;;;4.15;1.02;;;18.90;99.90;;;;;;5055638;28;20476;-75
2023/07/29 06:59:59;;;;;;;3.45;1.02;;;19.00;99.90;;;;;;5056006;28;20135;-75
2023/07/29 07:02:25;;;;;;;7.82;1.23;;;18.90;99.90;;;;;;5055662;28;20090;-75
2023/07/29 07:04:50;;;;;;;5.97;1.00;;;18.90;99.90;;;;;;5054805;28;20057;-75
2023/07/29 07:07:16;;;;;;;6.32;0.85;;;18.90;99.90;;;;;;5054365;28;20017;-75
2023/07/29 07:09:42;;;;;;;2.47;1.08;;;18.80;99.90;;;;;;5055630;28;20047;-75
2023/07/29 07:12:08;;;;;;;1.10;0.70;;;18.90;99.90;;;;;;5055624;28;20017;-75
2023/07/29 07:14:33;;;;;;;3.38;1.45;;;18.80;99.90;;;;;;5055525;28;20031;-75
2023/07/29 07:16:59;;;;;;;3.60;0.75;;;19.10;99.90;;;;;;5055560;28;20014;-75
2023/07/29 07:19:24;;;;;;;7.30;0.77;;;18.60;99.90;;;;;;5055946;28;20078;-75
2023/07/29 07:21:50;;;;;;;5.57;0.90;;;18.70;99.90;;;;;;5055989;28;20021;-75
2023/07/29 07:24:15;;;;;;;1.83;1.13;;;18.70;99.90;;;;;;5053883;28;20506;-75
2023/07/29 07:26:41;;;;;;;3.67;1.23;;;18.70;99.90;;;;;;5055056;28;20013;-75
2023/07/29 07:29:06;;;;;;;4.15;0.88;;;18.70;99.90;;;;;;5055247;28;20028;-75
2023/07/29 07:31:34;;;;;;;3.45;0.93;;;18.90;99.90;;;;;;5056089;28;20031;-75
2023/07/29 07:34:00;;;;;;;3.75;0.98;;;19.10;99.90;;;;;;5055449;28;20017;-75
2023/07/29 07:36:26;;;;;;;2.47;1.10;;;19.20;99.90;;;;;;5054974;28;20025;-75
2023/07/29 07:38:51;;;;;;;1.65;1.00;;;19.30;99.90;;;;;;5055164;28;20086;-75
2023/07/29 07:41:17;;;;;;;1.70;0.63;;;19.40;99.90;;;;;;5053886;28;20036;-75
2023/07/29 07:43:42;;;;;;;1.42;0.73;;;19.60;99.90;;;;;;5053707;28;20025;-75
2023/07/29 07:46:08;;;;;;;3.45;1.05;;;19.80;99.90;;;;;;5053602;28;20510;-75
2023/07/29 07:48:34;;;;;;;2.00;0.60;;;19.70;99.90;;;;;;5055425;28;20028;-75
2023/07/29 07:50:59;;;;;;;1.00;0.63;;;19.80;99.90;;;;;;5054839;28;20029;-75
2023/07/29 07:53:27;;;;;;;1.98;1.25;;;19.90;99.90;;;;;;5053770;28;20021;-75
2023/07/29 07:55:53;;;;;;;2.13;1.08;;;20.00;99.90;;;;;;5054887;28;20492;-75
2023/07/29 07:58:18;;;;;;;5.28;1.30;;;20.00;99.90;;;;;;5053591;28;20115;-75
2023/07/29 08:00:44;;;;;;;2.45;0.90;;;20.00;99.90;;;;;;5054649;28;20056;-76
2023/07/29 08:03:10;;;;;;;2.38;1.08;;;20.10;99.90;;;;;;5054638;28;20059;-75
2023/07/29 08:05:35;;;;;;;3.05;0.90;;;20.10;99.90;;;;;;5054293;28;20086;-75
2023/07/29 08:08:01;;;;;;;1.17;0.50;;;20.00;99.90;;;;;;5055165;28;20032;-74
2023/07/29 08:10:26;;;;;;;4.57;0.90;;;20.10;99.90;;;;;;5055092;28;20106;-75
2023/07/29 08:12:52;;;;;;;0.38;0.20;;;20.20;99.90;;;;;;5053070;28;20396;-75
2023/07/29 08:15:17;;;;;;;1.83;0.50;;;20.30;99.90;;;;;;5054645;28;20476;-75
2023/07/29 08:17:43;;;;;;;2.00;0.30;;;20.20;99.90;;;;;;5054554;28;20491;-75
2023/07/29 08:20:09;;;;;;;1.52;0.22;;;20.00;99.90;;;;;;5054440;28;20059;-75
2023/07/29 08:22:35;;;;;;;0.40;0.20;;;20.00;99.90;;;;;;5052974;28;20056;-75
2023/07/29 08:25:00;;;;;;;1.60;0.17;;;20.00;99.90;;;;;;5054161;28;20067;-75
2023/07/29 08:27:26;;;;;;;3.08;0.55;;;20.00;99.90;;;;;;5054284;28;20025;-75
2023/07/29 08:29:53;;;;;;;1.45;0.28;;;20.00;99.90;;;;;;5054520;28;20021;-76
2023/07/29 08:32:18;;;;;;;0.60;0.32;;;20.00;99.90;;;;;;5054168;28;20039;-75
2023/07/29 08:34:44;;;;;;;8.77;1.85;;;19.90;99.90;;;;;;5052726;28;20032;-75
2023/07/29 08:37:09;;;;;;;2.25;0.32;;;19.70;99.90;;;;;;5052569;28;20029;-74
2023/07/29 08:39:35;;;;;;;0.82;0.55;;;19.70;99.90;;;;;;5052813;28;20040;-75
2023/07/29 08:42:07;;;;;;;2.38;0.40;;;19.60;99.90;;;;;;5054481;28;20036;-76
2023/07/29 08:44:42;;;;;;;2.67;0.63;;;19.60;99.90;;;;;;5052475;28;20035;-75
2023/07/29 08:47:08;;;;;;;4.13;0.38;;;19.50;99.90;;;;;;5052752;28;20028;-76
2023/07/29 08:49:34;;;;;;;2.70;0.30;;;19.40;99.90;;;;;;5053890;28;20029;-76
2023/07/29 08:52:01;;;;;;;1.42;0.22;;;19.30;99.90;;;;;;5054518;28;20036;-76
2023/07/29 08:54:26;;;;;;;4.20;0.65;;;19.30;99.90;;;;;;5054235;28;20021;-75
2023/07/29 08:56:52;;;;;;;1.55;0.63;;;19.30;99.90;;;;;;5053847;28;20024;-75
2023/07/29 08:59:19;;;;;;;0.65;0.50;;;19.40;99.90;;;;;;5053607;28;20024;-75
2023/07/29 09:01:44;;;;;;;4.13;1.02;;;19.70;99.90;;;;;;5053780;28;20448;-75
2023/07/29 09:04:10;;;;;;;3.50;1.13;;;20.20;99.90;;;;;;5052180;28;20063;-75
2023/07/29 09:06:38;;;;;;;2.47;0.77;;;20.60;99.90;;;;;;5054147;28;20479;-75
2023/07/29 09:09:04;;;;;;;1.70;0.80;;;20.70;99.90;;;;;;5053855;28;20020;-76
2023/07/29 09:11:30;;;;;;;4.78;0.60;;;20.60;99.90;;;;;;5053952;28;20082;-76
2023/07/29 09:13:56;;;;;;;1.55;0.30;;;20.70;99.90;;;;;;5053268;28;20025;-75
2023/07/29 09:16:22;;;;;;;2.92;0.55;;;20.60;99.90;;;;;;5052102;28;20472;-76
2023/07/29 09:18:52;;;;;;;0.70;0.25;;;20.60;99.90;;;;;;5051841;28;20032;-76
2023/07/29 09:21:22;;;;;;;1.23;0.40;;;20.60;99.90;;;;;;5053615;28;20451;-74
2023/07/29 09:23:50;;;;;;;0.38;0.28;;;20.50;99.90;;;;;;5053205;28;20399;-75
2023/07/29 09:26:23;;;;;;;1.75;0.28;;;20.50;99.90;;;;;;5052206;28;20032;-75
2023/07/29 09:29:00;;;;;;;2.55;0.93;;;20.60;99.90;;;;;;5052810;28;20032;-75
2023/07/29 09:31:27;;;;;;;1.02;0.57;;;20.60;99.90;;;;;;5053312;28;20025;-76
2023/07/29 09:33:58;;;;;;;0.70;0.25;;;20.50;99.90;;;;;;5053072;28;20388;-75
2023/07/29 09:36:23;;;;;;;3.42;0.60;;;20.40;99.90;;;;;;5052071;28;20036;-75
2023/07/29 09:38:55;;;;;;;1.05;0.60;;;20.20;99.90;;;;;;5053147;28;20017;-76
2023/07/29 09:41:30;;;;;;;2.22;0.52;;;20.10;99.90;;;;;;5053128;28;20021;-76
2023/07/29 09:43:58;;;;;;;3.95;0.70;;;20.00;99.90;;;;;;5051890;28;20118;-75
2023/07/29 09:46:27;;;;;;;1.38;0.73;;;19.90;99.90;;;;;;5052933;28;20017;-75
2023/07/29 09:48:56;;;;;;;0.50;0.45;;;19.80;99.90;;;;;;5053063;28;20079;-75
2023/07/29 09:51:22;;;;;;;2.60;0.55;;;19.80;99.90;;;;;;5053004;28;20027;-75
2023/07/29 09:53:49;;;;;;;1.80;0.65;;;20.10;99.90;;;;;;5053160;28;20104;-76
2023/07/29 09:56:15;;;;;;;1.25;0.52;;;20.20;99.90;;;;;;5051720;28;20079;-75
2023/07/29 09:58:47;;;;;;;4.25;0.85;;;20.30;99.90;;;;;;5053680;28;20029;-75
2023/07/29 10:01:14;;;;;;;1.15;0.40;;;20.40;99.90;;;;;;5052999;28;20060;-75
2023/07/29 10:03:40;;;;;;;2.95;0.10;;;20.50;99.90;;;;;;5053130;28;20404;-75
2023/07/29 10:06:06;;;;;;;1.23;0.30;;;20.60;99.90;;;;;;5052724;28;20112;-75
2023/07/29 10:08:37;;;;;;;1.95;0.45;;;20.60;99.90;;;;;;5051640;28;20524;-75
2023/07/29 10:11:08;;;;;;;2.08;0.40;;;20.60;99.90;;;;;;5051499;28;20013;-75
2023/07/29 10:13:35;;;;;;;0.30;0.15;;;20.60;99.90;;;;;;5053486;28;20048;-75
2023/07/29 10:16:03;;;;;;;0.40;0.10;;;20.50;99.90;;;;;;5053000;28;20025;-76
2023/07/29 10:18:33;;;;;;;1.35;0.30;;;20.40;99.90;;;;;;5051475;28;20017;-75
2023/07/29 10:21:00;;;;;;;2.58;0.45;;;20.20;99.90;;;;;;5052503;28;20074;-75
2023/07/29 10:23:27;;;;;;;0.57;0.57;;;19.90;99.90;;;;;;5052528;28;20075;-75
2023/07/29 10:26:03;;;;;;;1.88;0.55;;;19.80;99.90;;;;;;5051211;28;20440;-75
2023/07/29 10:28:30;;;;;;;1.60;0.75;;;19.60;99.90;;;;;;5052576;28;20017;-75
2023/07/29 10:30:58;;;;;;;3.67;1.23;;;19.60;99.90;;;;;;5051322;28;20032;-74
2023/07/29 10:33:24;;;;;;;1.58;0.88;;;19.40;99.90;;;;;;5052493;28;20366;-74
2023/07/29 10:35:50;;;;;;;3.70;1.15;;;19.40;99.90;;;;;;5051296;28;20025;-75
2023/07/29 10:38:16;;;;;;;3.35;1.55;;;19.40;99.90;;;;;;5052549;28;20021;-74
2023/07/29 10:41:08;;;;;;;5.15;1.10;;;19.40;99.90;;;;;;5054141;28;20028;-75
2023/07/29 10:43:37;;;;;;;3.85;1.75;;;19.40;99.90;;;;;;5055861;28;20037;-75
2023/07/29 10:46:20;;;;;;;2.65;1.30;;;19.60;99.90;;;;;;5054729;28;20025;-74
2023/07/29 10:48:56;;;;;;;4.22;1.60;;;19.80;99.90;;;;;;5055954;28;20013;-75
2023/07/29 10:51:51;;;;;;;2.22;0.80;;;20.00;99.90;;;;;;5056525;28;20116;-75
2023/07/29 10:54:16;;;;;;;2.50;0.60;;;20.20;99.90;;;;;;5055180;28;20405;-75
2023/07/29 10:56:46;;;;;;;1.13;0.30;;;20.30;99.90;;;;;;5055664;28;20021;-76
2023/07/29 10:59:12;;;;;;;0.85;0.00;;;20.30;99.90;;;;;;5055825;28;20025;-76
2023/07/29 11:01:40;;;;;;;0.75;0.00;;;20.20;99.90;;;;;;5054339;28;20511;-76
2023/07/29 11:04:23;;;;;;;0.10;0.00;;;20.20;99.90;;;;;;5055556;28;20539;-75
2023/07/29 11:07:07;;;;;;;1.08;0.10;;;20.00;99.90;;;;;;5054383;28;20033;-76
2023/07/29 11:09:50;;;;;;;0.17;0.00;;;20.00;99.90;;;;;;5056287;28;20155;-75
2023/07/29 11:12:48;;;;;;;5.20;0.00;;;19.90;99.90;;;;;;5054217;28;20029;-75
2023/07/29 11:15:21;;;;;;;1.73;0.20;;;19.80;99.90;;;;;;5054210;28;20025;-76
2023/07/29 11:17:54;;;;;;;0.68;0.00;;;19.70;99.90;;;;;;5054113;28;20259;-75
2023/07/29 11:20:22;;;;;;;0.75;0.00;;;19.50;99.90;;;;;;5055460;28;20484;-74
2023/07/29 11:22:48;;;;;;;2.78;0.00;;;19.30;99.90;;;;;;5054114;28;20025;-75
2023/07/29 11:25:16;;;;;;;0.52;0.03;;;19.30;99.90;;;;;;5053798;28;20119;-74
2023/07/29 11:27:43;;;;;;;0.00;0.00;;;19.20;99.90;;;;;;5053911;28;20066;-76
2023/07/29 11:30:11;;;;;;;0.10;0.00;;;19.10;99.90;;;;;;5055780;28;20021;-75
2023/07/29 11:32:38;;;;;;;8.93;0.43;;;19.10;99.90;;;;;;5053945;28;20024;-75
2023/07/29 11:35:05;;;;;;;0.10;0.00;;;19.10;99.90;;;;;;5055152;28;20540;-75
2023/07/29 11:37:32;;;;;;;1.55;0.00;;;19.20;99.90;;;;;;5054974;28;20029;-75
2023/07/29 11:39:58;;;;;;;0.25;0.00;;;19.30;99.90;;;;;;5055092;28;20396;-75
2023/07/29 11:42:24;;;;;;;0.50;0.00;;;19.40;99.90;;;;;;5054927;28;20025;-75
2023/07/29 11:44:49;;;;;;;1.98;0.30;;;19.60;99.90;;;;;;5054027;28;20029;-75
2023/07/29 11:47:15;;;;;;;1.45;0.00;;;19.70;99.90;;;;;;5054845;28;20426;-75
2023/07/29 11:49:41;;;;;;;4.28;0.88;;;20.00;99.90;;;;;;5053452;28;20029;-75
2023/07/29 11:52:08;;;;;;;1.23;0.20;;;20.10;99.90;;;;;;5053188;28;20127;-75
2023/07/29 11:54:38;;;;;;;0.80;0.00;;;20.50;99.90;;;;;;5053427;28;20035;-75
2023/07/29 11:57:08;;;;;;;1.67;0.10;;;20.90;99.90;;;;;;5054607;28;20078;-75
2023/07/29 11:59:37;;;;;;;0.50;0.20;;;21.10;99.90;;;;;;5053311;28;20089;-75
2023/07/29 12:02:10;;;;;;;0.50;0.00;;;21.30;99.90;;;;;;5054427;28;20025;-75
2023/07/29 12:04:37;;;;;;;0.63;0.00;;;22.00;99.90;;;;;;5053484;28;20025;-75
2023/07/29 12:07:03;;;;;;;0.40;0.00;;;22.40;99.90;;;;;;5054412;28;20029;-75
2023/07/29 12:09:30;;;;;;;0.25;0.00;;;22.30;99.90;;;;;;5054927;28;20098;-76
2023/07/29 12:11:56;;;;;;;0.30;0.00;;;22.30;99.90;;;;;;5054720;28;20017;-75
2023/07/29 12:14:22;;;;;;;0.10;0.00;;;22.10;99.90;;;;;;5053069;28;20437;-75
2023/07/29 12:16:51;;;;;;;0.20;0.17;;;21.90;99.90;;;;;;5054357;28;20539;-75
2023/07/29 12:19:18;;;;;;;1.10;0.10;;;21.50;99.90;;;;;;5054134;28;20407;-74
2023/07/29 12:21:44;;;;;;;1.30;0.00;;;21.50;99.90;;;;;;5052808;28;20183;-76
2023/07/29 12:24:12;;;;;;;0.30;0.00;;;21.60;99.90;;;;;;5054064;28;20025;-76
2023/07/29 12:26:37;;;;;;;1.75;0.10;;;21.60;99.90;;;;;;5052985;28;20025;-74
2023/07/29 12:29:16;;;;;;;0.10;0.00;;;21.70;99.90;;;;;;5053023;28;20551;-75
2023/07/29 12:31:42;;;;;;;0.10;0.03;;;21.70;99.90;;;;;;5054068;28;20032;-76
2023/07/29 12:34:08;;;;;;;0.75;0.00;;;21.80;99.90;;;;;;5054108;28;20017;-75
2023/07/29 12:36:45;;;;;;;1.52;0.10;;;21.90;99.90;;;;;;5054460;28;20033;-75
2023/07/29 12:39:28;;;;;;;0.57;0.15;;;22.10;99.90;;;;;;5054132;28;20021;-75
2023/07/29 12:41:56;;;;;;;1.27;0.00;;;22.30;99.90;;;;;;5052652;28;20064;-74
2023/07/29 12:44:23;;;;;;;0.10;0.00;;;22.80;99.90;;;;;;5053844;28;20032;-76
2023/07/29 12:46:48;;;;;;;1.30;0.00;;;22.80;99.90;;;;;;5052486;28;20463;-75
2023/07/29 12:49:14;;;;;;;0.30;0.00;;;22.80;99.90;;;;;;5053890;28;20124;-75